Time;durP1;ratioP1;P1;durP2;ratioP2;P2;SDS_P1;SDS_P2;PMS_P1;PMS_P2;Temp;Humidity;BMP_temperature;BMP_pressure;BME280_temperature;BME280_humidity;BME280_pressure;Samples;Min_cycle;Max_cycle;Signal;HPM_P1;HPM_P2
2022/02/26 00:00:09;;;;;;;;;;;1.50;99.90;;;;;;5053944;28;19967;-54
2022/02/26 00:02:35;;;;;;;;;;;1.50;99.90;;;;;;5054038;28;19925;-55
2022/02/26 00:05:02;;;;;;;;;;;1.50;99.90;;;;;;5053481;28;20044;-55
2022/02/26 00:07:29;;;;;;;;;;;1.50;99.90;;;;;;5053875;28;19967;-53
2022/02/26 00:09:56;;;;;;;;;;;1.50;99.90;;;;;;5053370;28;19993;-56
2022/02/26 00:12:22;;;;;;;;;;;1.50;99.90;;;;;;5053892;28;19974;-54
2022/02/26 00:14:49;;;;;;;;;;;1.50;99.90;;;;;;5053621;28;19982;-53
2022/02/26 00:17:15;;;;;;;;;;;1.40;99.90;;;;;;5053193;28;19966;-52
2022/02/26 00:19:42;;;;;;;;;;;1.40;99.90;;;;;;5053483;28;20280;-54
2022/02/26 00:22:09;;;;;;;;;;;1.40;99.90;;;;;;5052796;28;19924;-56
2022/02/26 00:24:36;;;;;;;;;;;1.40;99.90;;;;;;5053085;28;20353;-54
2022/02/26 00:27:03;;;;;;;;;;;1.40;99.90;;;;;;5052858;28;19924;-52
2022/02/26 00:29:32;;;;;;;;;;;1.40;99.90;;;;;;5053497;28;19921;-55
2022/02/26 00:31:58;;;;;;;;;;;1.50;99.90;;;;;;5053447;28;19966;-54
2022/02/26 00:34:25;;;;;;;;;;;1.40;99.90;;;;;;5053394;28;19928;-55
2022/02/26 00:36:52;;;;;;;;;;;1.40;99.90;;;;;;5053017;28;19921;-55
2022/02/26 00:39:19;;;;;;;;;;;1.40;99.90;;;;;;5053089;28;19963;-54
2022/02/26 00:41:46;;;;;;;;;;;1.40;99.90;;;;;;5053365;28;19925;-55
2022/02/26 00:44:13;;;;;;;;;;;1.40;99.90;;;;;;5052880;28;19921;-56
2022/02/26 00:46:39;;;;;;;;;;;1.40;99.90;;;;;;5052395;28;20433;-52
2022/02/26 00:51:50;;;;;;;;;;;1.40;99.90;;;;;;5052723;28;19924;-55
2022/02/26 00:54:17;;;;;;;;;;;1.40;99.90;;;;;;5052798;28;19966;-57
2022/02/26 00:56:44;;;;;;;;;;;1.50;99.90;;;;;;5052701;28;20375;-54
2022/02/26 00:59:12;;;;;;;;;;;1.50;99.90;;;;;;5052329;28;19974;-51
2022/02/26 01:01:38;;;;;;;;;;;1.60;99.90;;;;;;5052362;28;19925;-53
2022/02/26 01:04:05;;;;;;;;;;;1.70;99.90;;;;;;5052445;28;19921;-57
2022/02/26 01:06:32;;;;;;;;;;;1.70;99.90;;;;;;5052554;28;20051;-55
2022/02/26 01:08:58;;;;;;;;;;;1.80;99.90;;;;;;5052657;28;20375;-55
2022/02/26 01:11:25;;;;;;;;;;;1.80;99.90;;;;;;5052513;28;19947;-56
2022/02/26 01:13:51;;;;;;;;;;;1.90;99.90;;;;;;5052474;28;19943;-55
2022/02/26 01:16:19;;;;;;;;;;;1.90;99.90;;;;;;5051912;28;19925;-55
2022/02/26 01:18:46;;;;;;;;;;;2.00;99.90;;;;;;5052113;28;19947;-56
2022/02/26 01:21:13;;;;;;;;;;;2.00;99.90;;;;;;5052093;28;19924;-53
2022/02/26 01:23:39;;;;;;;;;;;2.00;99.90;;;;;;5052301;28;19974;-53
2022/02/26 01:26:05;;;;;;;;;;;2.10;99.90;;;;;;5051771;28;19925;-55
2022/02/26 01:28:32;;;;;;;;;;;2.10;99.90;;;;;;5052209;28;19921;-52
2022/02/26 01:30:58;;;;;;;;;;;2.10;99.90;;;;;;5052192;28;19921;-53
2022/02/26 01:33:26;;;;;;;;;;;2.00;99.90;;;;;;5051697;28;19929;-55
2022/02/26 01:35:53;;;;;;;;;;;2.00;99.90;;;;;;5056183;28;20375;-56
2022/02/26 01:38:19;;;;;;;;;;;2.00;99.90;;;;;;5056473;28;19921;-52
2022/02/26 01:40:46;;;;;;;;;;;2.10;99.90;;;;;;5056380;28;20372;-57
2022/02/26 01:43:13;;;;;;;;;;;2.10;99.90;;;;;;5056193;28;19921;-52
2022/02/26 01:45:39;;;;;;;;;;;2.20;99.90;;;;;;5056176;28;19924;-55
2022/02/26 01:48:06;;;;;;;;;;;2.20;99.90;;;;;;5056164;28;20050;-55
2022/02/26 01:50:34;;;;;;;;;;;2.20;99.90;;;;;;5056076;28;19920;-56
2022/02/26 01:53:00;;;;;;;;;;;2.20;99.90;;;;;;5056110;28;19927;-54
2022/02/26 01:55:27;;;;;;;;;;;2.20;99.90;;;;;;5055615;28;19974;-55
2022/02/26 01:57:54;;;;;;;;;;;2.20;99.90;;;;;;5055759;28;19966;-53
2022/02/26 02:00:20;;;;;;;;;;;2.20;99.90;;;;;;5055490;28;20284;-57
2022/02/26 02:02:48;;;;;;;;;;;2.20;99.90;;;;;;5055621;28;20363;-52
2022/02/26 02:05:14;;;;;;;;;;;2.20;99.90;;;;;;5055620;28;19928;-53
2022/02/26 02:07:42;;;;;;;;;;;2.20;99.90;;;;;;5055586;28;19924;-56
2022/02/26 02:10:09;;;;;;;;;;;2.20;99.90;;;;;;5055401;28;19966;-56
2022/02/26 02:12:35;;;;;;;;;;;2.20;99.90;;;;;;5055494;28;19966;-54
2022/02/26 02:15:02;;;;;;;;;;;2.20;99.90;;;;;;5055491;28;19966;-51
2022/02/26 02:17:28;;;;;;;;;;;2.20;99.90;;;;;;5055274;28;19924;-53
2022/02/26 02:19:55;;;;;;;;;;;2.20;99.90;;;;;;5055463;28;20329;-56
2022/02/26 02:22:23;;;;;;;;;;;2.20;99.90;;;;;;5055299;28;19924;-53
2022/02/26 02:24:49;;;;;;;;;;;2.20;99.90;;;;;;5055147;28;19928;-50
2022/02/26 02:27:17;;;;;;;;;;;2.10;99.90;;;;;;5054814;28;19921;-54
2022/02/26 02:29:43;;;;;;;;;;;2.00;99.90;;;;;;5055454;28;19920;-56
2022/02/26 02:32:10;;;;;;;;;;;2.00;99.90;;;;;;5055359;28;19920;-52
2022/02/26 02:34:36;;;;;;;;;;;1.90;99.90;;;;;;5055062;28;19924;-52
2022/02/26 02:37:03;;;;;;;;;;;1.90;99.90;;;;;;5055040;28;19967;-55
2022/02/26 02:39:32;;;;;;;;;;;2.00;99.90;;;;;;5054957;28;19920;-55
2022/02/26 02:41:58;;;;;;;;;;;2.10;99.90;;;;;;5054728;28;20319;-52
2022/02/26 02:44:25;;;;;;;;;;;2.10;99.90;;;;;;5054803;28;19925;-50
2022/02/26 02:46:51;;;;;;;;;;;2.10;99.90;;;;;;5054895;28;20374;-55
2022/02/26 02:49:18;;;;;;;;;;;2.00;99.90;;;;;;5054634;28;19974;-56
2022/02/26 02:51:44;;;;;;;;;;;2.00;99.90;;;;;;5054846;28;19920;-53
2022/02/26 02:54:11;;;;;;;;;;;2.00;99.90;;;;;;5054947;28;19975;-57
2022/02/26 02:56:39;;;;;;;;;;;2.00;99.90;;;;;;5054484;28;19924;-54
2022/02/26 02:59:05;;;;;;;;;;;2.10;99.90;;;;;;5054758;28;19924;-51
2022/02/26 03:01:32;;;;;;;;;;;2.10;99.90;;;;;;5054560;28;19982;-52
2022/02/26 03:03:59;;;;;;;;;;;2.10;99.90;;;;;;5054610;28;19921;-55
2022/02/26 03:06:25;;;;;;;;;;;2.10;99.90;;;;;;5054320;28;19920;-54
2022/02/26 03:08:52;;;;;;;;;;;2.10;99.90;;;;;;5054681;28;19921;-55
2022/02/26 03:11:19;;;;;;;;;;;2.20;99.90;;;;;;5054443;28;19920;-58
2022/02/26 03:13:47;;;;;;;;;;;2.20;99.90;;;;;;5054802;28;19921;-54
2022/02/26 03:16:15;;;;;;;;;;;2.20;99.90;;;;;;5054364;28;20481;-55
2022/02/26 03:18:42;;;;;;;;;;;2.10;99.90;;;;;;5054782;28;19921;-52
2022/02/26 03:21:08;;;;;;;;;;;2.00;99.90;;;;;;5054533;28;19920;-58
2022/02/26 03:23:35;;;;;;;;;;;2.00;99.90;;;;;;5054274;28;20276;-56
2022/02/26 03:26:01;;;;;;;;;;;2.00;99.90;;;;;;5054107;28;19921;-57
2022/02/26 03:28:28;;;;;;;;;;;2.00;99.90;;;;;;5054421;28;19921;-54
2022/02/26 03:30:56;;;;;;;;;;;2.10;99.90;;;;;;5054525;28;19928;-56
2022/02/26 03:33:22;;;;;;;;;;;2.10;99.90;;;;;;5054314;28;19920;-54
2022/02/26 03:35:49;;;;;;;;;;;2.00;99.90;;;;;;5053982;28;19920;-54
2022/02/26 03:38:15;;;;;;;;;;;2.00;99.90;;;;;;5053639;28;19968;-53
2022/02/26 03:40:42;;;;;;;;;;;2.00;99.90;;;;;;5053727;28;19978;-51
2022/02/26 03:43:09;;;;;;;;;;;2.10;99.90;;;;;;5054018;28;19924;-50
2022/02/26 03:45:35;;;;;;;;;;;2.10;99.90;;;;;;5053899;28;19921;-52
2022/02/26 03:48:03;;;;;;;;;;;2.10;99.90;;;;;;5053836;28;19935;-50
2022/02/26 03:50:30;;;;;;;;;;;2.10;99.90;;;;;;5053641;28;19967;-55
2022/02/26 03:52:56;;;;;;;;;;;2.10;99.90;;;;;;5053605;28;20387;-53
2022/02/26 03:55:23;;;;;;;;;;;2.10;99.90;;;;;;5053603;28;19947;-51
2022/02/26 03:57:50;;;;;;;;;;;2.10;99.90;;;;;;5053075;28;19978;-57
2022/02/26 04:00:16;;;;;;;;;;;2.10;99.90;;;;;;5053280;28;19920;-50
2022/02/26 04:02:43;;;;;;;;;;;2.20;99.90;;;;;;5053531;28;19920;-53
2022/02/26 04:05:11;;;;;;;;;;;2.20;99.90;;;;;;5053397;28;19920;-55
2022/02/26 04:07:40;;;;;;;;;;;2.20;99.90;;;;;;5053061;28;19928;-54
2022/02/26 04:10:07;;;;;;;;;;;2.20;99.90;;;;;;5053781;28;20326;-54
2022/02/26 04:12:33;;;;;;;;;;;2.20;99.90;;;;;;5053666;28;19925;-54
2022/02/26 04:15:00;;;;;;;;;;;2.20;99.90;;;;;;5053475;28;19982;-56
2022/02/26 04:17:26;;;;;;;;;;;2.20;99.90;;;;;;5053280;28;19924;-56
2022/02/26 04:19:53;;;;;;;;;;;2.20;99.90;;;;;;5053332;28;20353;-56
2022/02/26 04:22:21;;;;;;;;;;;2.20;99.90;;;;;;5052949;28;19936;-56
2022/02/26 04:24:47;;;;;;;;;;;2.20;99.90;;;;;;5053002;28;19920;-54
2022/02/26 04:27:14;;;;;;;;;;;2.10;99.90;;;;;;5052958;28;19974;-54
2022/02/26 04:29:40;;;;;;;;;;;2.10;99.90;;;;;;5052740;28;19975;-54
2022/02/26 04:32:07;;;;;;;;;;;2.10;99.90;;;;;;5052984;28;19921;-52
2022/02/26 04:34:34;;;;;;;;;;;2.10;99.90;;;;;;5052350;28;19925;-54
2022/02/26 04:37:00;;;;;;;;;;;2.00;99.90;;;;;;5053021;28;19974;-56
2022/02/26 04:39:28;;;;;;;;;;;1.90;99.90;;;;;;5052726;28;19945;-52
2022/02/26 04:41:55;;;;;;;;;;;1.80;99.90;;;;;;5052816;28;19966;-55
2022/02/26 04:44:21;;;;;;;;;;;1.80;99.90;;;;;;5052646;28;19920;-54
2022/02/26 04:46:48;;;;;;;;;;;1.70;99.90;;;;;;5052565;28;19925;-55
2022/02/26 04:49:15;;;;;;;;;;;1.70;99.90;;;;;;5052494;28;19928;-53
2022/02/26 04:51:41;;;;;;;;;;;1.70;99.90;;;;;;5052750;28;20320;-55
2022/02/26 04:54:08;;;;;;;;;;;1.70;99.90;;;;;;5052666;28;19946;-52
2022/02/26 04:56:36;;;;;;;;;;;1.60;99.90;;;;;;5052268;28;20129;-55
2022/02/26 04:59:02;;;;;;;;;;;1.50;99.90;;;;;;5052511;28;20379;-55
2022/02/26 05:01:29;;;;;;;;;;;1.40;99.90;;;;;;5052220;28;19924;-57
2022/02/26 05:03:55;;;;;;;;;;;1.30;99.90;;;;;;5052525;28;19924;-54
2022/02/26 05:06:23;;;;;;;;;;;1.20;99.90;;;;;;5052188;28;20399;-52
2022/02/26 05:08:50;;;;;;;;;;;1.20;99.90;;;;;;5051902;28;19928;-52
2022/02/26 05:11:16;;;;;;;;;;;1.20;99.90;;;;;;5052387;28;19971;-53
2022/02/26 05:13:44;;;;;;;;;;;1.20;99.90;;;;;;5052144;28;20375;-53
2022/02/26 05:16:10;;;;;;;;;;;1.20;99.90;;;;;;5052047;28;19921;-50
2022/02/26 05:18:38;;;;;;;;;;;1.20;99.90;;;;;;5052003;28;19928;-52
2022/02/26 05:21:04;;;;;;;;;;;1.10;99.90;;;;;;5052298;28;19927;-52
2022/02/26 05:23:31;;;;;;;;;;;1.10;99.90;;;;;;5051994;28;19928;-55
2022/02/26 05:25:58;;;;;;;;;;;1.00;99.90;;;;;;5051969;28;20371;-55
2022/02/26 05:28:24;;;;;;;;;;;1.00;99.90;;;;;;5052021;28;19921;-52
2022/02/26 05:30:52;;;;;;;;;;;0.90;99.90;;;;;;5052013;28;19966;-52
2022/02/26 05:33:19;;;;;;;;;;;0.90;99.90;;;;;;5052315;28;19921;-54
2022/02/26 05:35:45;;;;;;;;;;;0.90;99.90;;;;;;5051759;28;19927;-53
2022/02/26 05:38:12;;;;;;;;;;;0.90;99.90;;;;;;5052159;28;19920;-54
2022/02/26 05:40:40;;;;;;;;;;;0.90;99.90;;;;;;5051843;28;19974;-50
2022/02/26 05:43:06;;;;;;;;;;;1.00;99.90;;;;;;5052084;28;19920;-53
2022/02/26 05:45:33;;;;;;;;;;;1.00;99.90;;;;;;5051647;28;19943;-56
2022/02/26 05:48:01;;;;;;;;;;;1.00;99.90;;;;;;5052151;28;19924;-51
2022/02/26 05:50:28;;;;;;;;;;;1.00;99.90;;;;;;5051895;28;19982;-53
2022/02/26 05:52:54;;;;;;;;;;;0.90;99.90;;;;;;5051996;28;19920;-51
2022/02/26 05:55:21;;;;;;;;;;;0.90;99.90;;;;;;5052265;28;19967;-51
2022/02/26 05:57:48;;;;;;;;;;;0.90;99.90;;;;;;5051906;28;20020;-54
2022/02/26 06:00:15;;;;;;;;;;;0.90;99.90;;;;;;5051914;28;20339;-58
2022/02/26 06:02:41;;;;;;;;;;;0.90;99.90;;;;;;5052142;28;19990;-54
2022/02/26 06:05:09;;;;;;;;;;;0.90;99.90;;;;;;5051938;28;19920;-53
2022/02/26 06:07:36;;;;;;;;;;;0.80;99.90;;;;;;5051511;28;19920;-53
2022/02/26 06:10:03;;;;;;;;;;;0.80;99.90;;;;;;5051856;28;19974;-58
2022/02/26 06:12:30;;;;;;;;;;;0.80;99.90;;;;;;5051564;28;19924;-56
2022/02/26 06:14:57;;;;;;;;;;;0.70;99.90;;;;;;5051877;28;19920;-58
2022/02/26 06:17:23;;;;;;;;;;;0.70;99.90;;;;;;5051774;28;19974;-55
2022/02/26 06:19:50;;;;;;;;;;;0.70;99.90;;;;;;5052229;28;19924;-55
2022/02/26 06:22:18;;;;;;;;;;;0.70;99.90;;;;;;5055529;28;19974;-53
2022/02/26 06:24:44;;;;;;;;;;;0.70;99.90;;;;;;5055013;28;19920;-53
2022/02/26 06:27:11;;;;;;;;;;;0.70;99.90;;;;;;5055168;28;19921;-56
2022/02/26 06:29:37;;;;;;;;;;;0.70;99.90;;;;;;5055211;28;19951;-55
2022/02/26 06:32:05;;;;;;;;;;;0.70;99.90;;;;;;5055312;28;20383;-53
2022/02/26 06:34:32;;;;;;;;;;;0.70;99.90;;;;;;5055019;28;19920;-53
2022/02/26 06:36:58;;;;;;;;;;;0.70;99.90;;;;;;5055016;28;20441;-59
2022/02/26 06:39:26;;;;;;;;;;;0.70;99.90;;;;;;5055094;28;19920;-54
2022/02/26 06:41:52;;;;;;;;;;;0.80;99.90;;;;;;5055290;28;19925;-57
2022/02/26 06:44:19;;;;;;;;;;;0.80;99.90;;;;;;5054907;28;20457;-55
2022/02/26 06:46:47;;;;;;;;;;;0.80;99.90;;;;;;5054793;28;19920;-53
2022/02/26 06:49:14;;;;;;;;;;;0.80;99.90;;;;;;5054767;28;19928;-52
2022/02/26 06:51:40;;;;;;;;;;;0.80;99.90;;;;;;5054672;28;19928;-51
2022/02/26 06:54:07;;;;;;;;;;;0.80;99.90;;;;;;5054708;28;19921;-52
2022/02/26 06:56:35;;;;;;;;;;;0.80;99.90;;;;;;5054368;28;20384;-53
2022/02/26 06:59:01;;;;;;;;;;;0.80;99.90;;;;;;5055052;28;20345;-51
2022/02/26 07:01:28;;;;;;;;;;;0.90;99.90;;;;;;5054523;28;20341;-52
2022/02/26 07:03:54;;;;;;;;;;;0.90;99.90;;;;;;5054663;28;19925;-53
2022/02/26 07:06:21;;;;;;;;;;;0.80;99.90;;;;;;5054355;28;19925;-53
2022/02/26 07:08:47;;;;;;;;;;;0.90;99.90;;;;;;5054204;28;20375;-50
2022/02/26 07:11:14;;;;;;;;;;;0.90;99.90;;;;;;5054705;28;19943;-58
2022/02/26 07:13:42;;;;;;;;;;;0.90;99.90;;;;;;5054283;28;19974;-56
2022/02/26 07:16:08;;;;;;;;;;;0.90;99.90;;;;;;5054507;28;19924;-56
2022/02/26 07:18:35;;;;;;;;;;;0.90;99.90;;;;;;5054418;28;19924;-55
2022/02/26 07:21:01;;;;;;;;;;;1.00;99.90;;;;;;5054447;28;20379;-52
2022/02/26 07:23:28;;;;;;;;;;;1.00;99.90;;;;;;5053826;28;19947;-52
2022/02/26 07:25:54;;;;;;;;;;;1.00;99.90;;;;;;5054139;28;19921;-56
2022/02/26 07:28:21;;;;;;;;;;;1.00;99.90;;;;;;5054531;28;20390;-57
2022/02/26 07:30:52;;;;;;;;;;;1.10;99.90;;;;;;5054105;28;19920;-55
2022/02/26 07:33:19;;;;;;;;;;;1.10;99.90;;;;;;5053308;28;19986;-58
2022/02/26 07:35:45;;;;;;;;;;;1.20;99.90;;;;;;5054054;28;20379;-53
2022/02/26 07:38:12;;;;;;;;;;;1.20;99.90;;;;;;5054117;28;20284;-54
2022/02/26 07:40:41;;;;;;;;;;;1.20;99.90;;;;;;5053724;28;19928;-55
2022/02/26 07:43:08;;;;;;;;;;;1.20;99.90;;;;;;5054167;28;19944;-56
2022/02/26 07:45:34;;;;;;;;;;;1.20;99.90;;;;;;5053780;28;20501;-53
2022/02/26 07:48:02;;;;;;;;;;;1.30;99.90;;;;;;5054055;28;19942;-57
2022/02/26 07:50:29;;;;;;;;;;;1.40;99.90;;;;;;5054213;28;19974;-55
2022/02/26 07:52:55;;;;;;;;;;;1.50;99.90;;;;;;5054235;28;19925;-54
2022/02/26 07:55:22;;;;;;;;;;;1.50;99.90;;;;;;5055039;28;19921;-55
2022/02/26 07:57:48;;;;;;;;;;;1.50;99.90;;;;;;5056485;28;20371;-57
2022/02/26 08:00:15;;;;;;;;;;;1.50;99.90;;;;;;5055221;28;19921;-57
2022/02/26 08:02:42;;;;;;;;;;;1.60;99.90;;;;;;5053409;28;19920;-57
2022/02/26 08:05:10;;;;;;;;;;;1.60;99.90;;;;;;5053311;28;19931;-57
2022/02/26 08:07:37;;;;;;;;;;;1.60;99.90;;;;;;5053241;28;19920;-57
2022/02/26 08:10:04;;;;;;;;;;;1.50;99.90;;;;;;5053081;28;20350;-54
2022/02/26 08:12:31;;;;;;;;;;;1.60;99.90;;;;;;5053441;28;19939;-53
2022/02/26 08:14:57;;;;;;;;;;;1.40;99.90;;;;;;5053106;28;19924;-58
2022/02/26 08:17:24;;;;;;;;;;;1.30;99.90;;;;;;5052983;28;20358;-53
2022/02/26 08:19:50;;;;;;;;;;;1.40;99.90;;;;;;5053155;28;19925;-56
2022/02/26 08:22:18;;;;;;;;;;;1.60;99.90;;;;;;5053285;28;19920;-55
2022/02/26 08:24:45;;;;;;;;;;;1.70;99.90;;;;;;5052940;28;19921;-56
2022/02/26 08:27:12;;;;;;;;;;;1.80;99.90;;;;;;5053322;28;19974;-57
2022/02/26 08:29:39;;;;;;;;;;;1.80;99.90;;;;;;5054083;28;19927;-57
2022/02/26 08:32:06;;;;;;;;;;;1.90;99.90;;;;;;5053167;28;20300;-56
2022/02/26 08:34:33;;;;;;;;;;;2.00;99.90;;;;;;5053192;28;19966;-59
2022/02/26 08:36:59;;;;;;;;;;;2.10;99.90;;;;;;5052740;28;19921;-55
2022/02/26 08:39:29;;;;;;;;;;;2.20;99.90;;;;;;5053107;28;19974;-54
2022/02/26 08:41:56;;;;;;;;;;;2.30;99.90;;;;;;5052677;28;19927;-55
2022/02/26 08:44:22;;;;;;;;;;;2.30;99.90;;;;;;5052586;28;19925;-56
2022/02/26 08:46:49;;;;;;;;;;;2.10;99.90;;;;;;5052351;28;19921;-55
2022/02/26 08:49:15;;;;;;;;;;;1.90;99.90;;;;;;5052993;28;19927;-55
2022/02/26 08:51:42;;;;;;;;;;;2.10;99.90;;;;;;5052710;28;19928;-54
2022/02/26 08:54:09;;;;;;;;;;;2.20;99.90;;;;;;5052731;28;20334;-55
2022/02/26 08:56:36;;;;;;;;;;;2.10;99.90;;;;;;5052654;28;20393;-55
2022/02/26 08:59:03;;;;;;;;;;;2.20;99.90;;;;;;5052390;28;19924;-56
2022/02/26 09:01:30;;;;;;;;;;;2.30;99.90;;;;;;5054650;28;19932;-57
2022/02/26 09:03:57;;;;;;;;;;;2.40;99.90;;;;;;5060157;28;19928;-56
2022/02/26 09:06:24;;;;;;;;;;;2.60;99.90;;;;;;5052250;28;19928;-54
2022/02/26 09:08:51;;;;;;;;;;;2.70;99.90;;;;;;5052181;28;20322;-57
2022/02/26 09:11:18;;;;;;;;;;;2.60;99.90;;;;;;5051907;28;20371;-54
2022/02/26 09:13:46;;;;;;;;;;;2.60;99.90;;;;;;5051526;28;20359;-56
2022/02/26 09:16:13;;;;;;;;;;;2.50;99.90;;;;;;5052032;28;20334;-58
2022/02/26 09:18:40;;;;;;;;;;;2.50;99.90;;;;;;5052069;28;19929;-56
2022/02/26 09:21:07;;;;;;;;;;;2.60;99.90;;;;;;5051743;28;19975;-63
2022/02/26 09:23:34;;;;;;;;;;;2.60;99.90;;;;;;5052235;28;19995;-62
2022/02/26 09:26:04;;;;;;;;;;;2.60;99.90;;;;;;5051026;28;19924;-61
2022/02/26 09:28:31;;;;;;;;;;;2.60;99.90;;;;;;5051612;28;19920;-59
2022/02/26 09:30:59;;;;;;;;;;;2.80;99.90;;;;;;5051736;28;19925;-58
2022/02/26 09:33:26;;;;;;;;;;;2.90;99.90;;;;;;5051759;28;19921;-59
2022/02/26 09:35:52;;;;;;;;;;;2.90;99.90;;;;;;5051505;28;20008;-64
2022/02/26 09:38:19;;;;;;;;;;;3.10;99.90;;;;;;5051505;28;19924;-63
2022/02/26 09:40:45;;;;;;;;;;;3.20;99.90;;;;;;5051554;28;19920;-62
2022/02/26 09:43:13;;;;;;;;;;;3.30;99.90;;;;;;5051298;28;19940;-66
2022/02/26 09:45:39;;;;;;;;;;;3.40;99.90;;;;;;5051710;28;19921;-61
2022/02/26 09:48:07;;;;;;;;;;;3.40;99.90;;;;;;5054864;28;19925;-61
2022/02/26 09:50:34;;;;;;;;;;;3.40;99.90;;;;;;5051650;28;19921;-60
2022/02/26 09:53:01;;;;;;;;;;;3.50;99.90;;;;;;5051320;28;20020;-58
2022/02/26 09:55:27;;;;;;;;;;;3.70;99.90;;;;;;5052456;28;20367;-62
2022/02/26 09:57:54;;;;;;;;;;;3.90;99.90;;;;;;5054793;28;20398;-61
2022/02/26 10:00:20;;;;;;;;;;;4.10;99.90;;;;;;5055342;28;20440;-59
2022/02/26 10:02:48;;;;;;;;;;;4.20;99.90;;;;;;5055724;28;19928;-61
2022/02/26 10:05:18;;;;;;;;;;;4.30;99.90;;;;;;5055395;28;19975;-61
2022/02/26 10:07:46;;;;;;;;;;;4.50;99.90;;;;;;5055299;28;20011;-60
2022/02/26 10:10:15;;;;;;;;;;;4.50;99.90;;;;;;5055377;28;19951;-61
2022/02/26 10:12:41;;;;;;;;;;;4.40;99.90;;;;;;5055030;28;19966;-62
2022/02/26 10:15:23;;;;;;;;;;;4.40;99.90;;;;;;5055248;28;19920;-59
2022/02/26 10:17:57;;;;;;;;;;;4.50;99.90;;;;;;5055556;28;19924;-60
2022/02/26 10:20:26;;;;;;;;;;;4.60;99.90;;;;;;5055100;28;19920;-59
2022/02/26 10:22:54;;;;;;;;;;;4.80;99.90;;;;;;5054936;28;19925;-57
2022/02/26 10:25:22;;;;;;;;;;;4.80;99.90;;;;;;5060064;28;20358;-60
2022/02/26 10:27:52;;;;;;;;;;;4.70;99.90;;;;;;5065397;28;19970;-61
2022/02/26 10:30:22;;;;;;;;;;;4.80;99.90;;;;;;5074893;28;19966;-59
2022/02/26 10:33:04;;;;;;;;;;;4.90;99.90;;;;;;5074525;28;19920;-59
2022/02/26 10:35:36;;;;;;;;;;;4.80;99.90;;;;;;5074471;28;19927;-60
2022/02/26 10:38:19;;;;;;;;;;;4.80;99.90;;;;;;5074899;28;19921;-59
2022/02/26 10:40:47;;;;;;;;;;;5.00;99.90;;;;;;5074646;28;19920;-57
2022/02/26 10:43:14;;;;;;;;;;;5.10;99.90;;;;;;5074436;28;20413;-59
2022/02/26 10:45:40;;;;;;;;;;;5.10;99.90;;;;;;5074414;28;19927;-58
2022/02/26 10:48:07;;;;;;;;;;;5.10;99.90;;;;;;5074408;28;19925;-57
2022/02/26 10:50:34;;;;;;;;;;;5.20;99.90;;;;;;5074736;28;19951;-59
2022/02/26 10:53:03;;;;;;;;;;;5.40;99.90;;;;;;5075560;28;19971;-62
2022/02/26 10:55:49;;;;;;;;;;;5.50;99.90;;;;;;5076411;28;19920;-63
2022/02/26 10:58:17;;;;;;;;;;;5.70;99.90;;;;;;5075151;28;20336;-64
2022/02/26 11:00:43;;;;;;;;;;;5.90;99.90;;;;;;5074458;28;19978;-62
2022/02/26 11:03:10;;;;;;;;;;;6.10;99.90;;;;;;5073969;28;19989;-64
2022/02/26 11:05:37;;;;;;;;;;;6.10;98.30;;;;;;5074250;28;19924;-57
2022/02/26 11:08:06;;;;;;;;;;;6.30;91.00;;;;;;5072886;28;19973;-57
2022/02/26 11:10:33;;;;;;;;;;;6.30;54.30;;;;;;5074140;28;20351;-59
2022/02/26 11:13:00;;;;;;;;;;;6.40;1.00;;;;;;5074455;28;19924;-58
2022/02/26 11:15:27;;;;;;;;;;;6.40;1.00;;;;;;5073839;28;20382;-58
2022/02/26 11:17:54;;;;;;;;;;;6.50;1.00;;;;;;5074088;28;19970;-58
2022/02/26 11:20:26;;;;;;;;;;;6.40;99.90;;;;;;5073918;28;19928;-57
2022/02/26 11:22:53;;;;;;;;;;;6.60;99.90;;;;;;5073558;28;19928;-64
2022/02/26 11:25:21;;;;;;;;;;;6.70;99.90;;;;;;5071601;28;20538;-57
2022/02/26 11:27:48;;;;;;;;;;;6.70;1.00;;;;;;5073669;28;19920;-59
2022/02/26 11:30:17;;;;;;;;;;;6.70;1.00;;;;;;5073720;28;19924;-59
2022/02/26 11:32:46;;;;;;;;;;;6.70;99.90;;;;;;5073374;28;19970;-57
2022/02/26 11:35:16;;;;;;;;;;;6.70;99.90;;;;;;5073990;28;20007;-60
2022/02/26 11:37:43;;;;;;;;;;;6.50;99.90;;;;;;5073502;28;19999;-59
2022/02/26 11:40:14;;;;;;;;;;;6.60;99.90;;;;;;5073777;28;19924;-57
2022/02/26 11:42:42;;;;;;;;;;;6.60;1.00;;;;;;5073604;28;19920;-59
2022/02/26 11:45:10;;;;;;;;;;;6.40;99.90;;;;;;5073329;28;19920;-59
2022/02/26 11:47:39;;;;;;;;;;;6.40;99.90;;;;;;5073681;28;19927;-58
2022/02/26 11:50:06;;;;;;;;;;;6.40;99.90;;;;;;5074172;28;19924;-65
2022/02/26 11:52:41;;;;;;;;;;;6.40;99.90;;;;;;5074425;28;20453;-64
2022/02/26 11:55:40;;;;;;;;;;;6.40;93.30;;;;;;5073301;28;20375;-65
2022/02/26 11:58:09;;;;;;;;;;;6.50;34.80;;;;;;5073447;28;19926;-63
2022/02/26 12:00:37;;;;;;;;;;;6.50;1.00;;;;;;5072879;28;20349;-62
2022/02/26 12:03:25;;;;;;;;;;;6.20;1.00;;;;;;5072942;28;19946;-64
2022/02/26 12:05:52;;;;;;;;;;;6.10;1.00;;;;;;5072588;28;19920;-58
2022/02/26 12:08:20;;;;;;;;;;;6.30;1.00;;;;;;5072890;28;19960;-58
2022/02/26 12:10:53;;;;;;;;;;;6.30;1.00;;;;;;5072672;28;19947;-57
2022/02/26 12:13:25;;;;;;;;;;;6.20;1.00;;;;;;5073092;28;19974;-57
2022/02/26 12:16:07;;;;;;;;;;;6.00;1.00;;;;;;5072956;28;20310;-58
2022/02/26 12:18:40;;;;;;;;;;;6.00;1.00;;;;;;5072682;28;20349;-59
2022/02/26 12:21:08;;;;;;;;;;;6.00;1.00;;;;;;5073381;28;19921;-58
2022/02/26 12:23:36;;;;;;;;;;;5.90;1.00;;;;;;5072541;28;19920;-55
2022/02/26 12:26:03;;;;;;;;;;;5.90;1.00;;;;;;5072650;28;19920;-58
2022/02/26 12:28:31;;;;;;;;;;;5.90;1.00;;;;;;5072615;28;20018;-59
2022/02/26 12:31:04;;;;;;;;;;;6.00;1.00;;;;;;5072739;28;19920;-59
2022/02/26 12:33:37;;;;;;;;;;;6.00;1.00;;;;;;5072324;28;19970;-58
2022/02/26 12:36:08;;;;;;;;;;;5.90;1.00;;;;;;5072271;28;19992;-61
2022/02/26 12:38:34;;;;;;;;;;;5.90;1.00;;;;;;5072715;28;19925;-61
2022/02/26 12:41:21;;;;;;;;;;;6.10;1.00;;;;;;5072269;28;19921;-60
2022/02/26 12:43:49;;;;;;;;;;;6.30;1.00;;;;;;5072255;28;20011;-61
2022/02/26 12:46:15;;;;;;;;;;;6.20;1.00;;;;;;5071787;28;19927;-60
2022/02/26 12:48:42;;;;;;;;;;;6.20;1.00;;;;;;5072577;28;19921;-61
2022/02/26 12:51:08;;;;;;;;;;;6.20;1.00;;;;;;5072195;28;19974;-60
2022/02/26 12:53:35;;;;;;;;;;;6.10;1.00;;;;;;5072407;28;20337;-60
2022/02/26 12:56:02;;;;;;;;;;;6.20;1.00;;;;;;5071837;28;20383;-60
2022/02/26 12:58:33;;;;;;;;;;;6.30;1.00;;;;;;5072210;28;19974;-56
2022/02/26 13:01:01;;;;;;;;;;;6.60;1.00;;;;;;5072075;28;19924;-61
2022/02/26 13:03:27;;;;;;;;;;;6.60;1.00;;;;;;5071876;28;19920;-59
2022/02/26 13:06:03;;;;;;;;;;;6.70;1.00;;;;;;5072013;28;20184;-61
2022/02/26 13:08:30;;;;;;;;;;;6.80;99.90;;;;;;5071964;28;20440;-61
2022/02/26 13:11:00;;;;;;;;;;;6.90;99.90;;;;;;5071934;28;19947;-60
2022/02/26 13:13:27;;;;;;;;;;;7.00;99.90;;;;;;5071743;28;20389;-60
2022/02/26 13:15:54;;;;;;;;;;;7.10;99.90;;;;;;5072442;28;19979;-59
2022/02/26 13:18:22;;;;;;;;;;;7.30;99.90;;;;;;5072674;28;19920;-57
2022/02/26 13:20:50;;;;;;;;;;;7.10;99.90;;;;;;5072063;28;19924;-55
2022/02/26 13:23:18;;;;;;;;;;;7.10;99.90;;;;;;5071907;28;19926;-52
2022/02/26 13:25:45;;;;;;;;;;;7.00;99.90;;;;;;5071425;28;19927;-56
2022/02/26 13:28:13;;;;;;;;;;;6.90;99.90;;;;;;5071987;28;20017;-55
2022/02/26 13:30:40;;;;;;;;;;;6.90;99.90;;;;;;5070902;28;19974;-58
2022/02/26 13:33:06;;;;;;;;;;;6.90;99.90;;;;;;5072086;28;19934;-61
2022/02/26 13:35:35;;;;;;;;;;;7.00;99.90;;;;;;5071765;28;19924;-58
2022/02/26 13:38:04;;;;;;;;;;;7.10;99.90;;;;;;5071640;28;19920;-60
2022/02/26 13:40:31;;;;;;;;;;;7.30;99.90;;;;;;5071581;28;19982;-58
2022/02/26 13:42:58;;;;;;;;;;;7.20;99.90;;;;;;5071345;28;19920;-61
2022/02/26 13:45:26;;;;;;;;;;;7.30;99.90;;;;;;5071804;28;19972;-61
2022/02/26 13:47:53;;;;;;;;;;;7.30;99.90;;;;;;5071341;28;19973;-61
2022/02/26 13:50:20;;;;;;;;;;;7.50;99.90;;;;;;5071734;28;19920;-62
2022/02/26 13:52:48;;;;;;;;;;;7.50;99.90;;;;;;5071086;28;19928;-61
2022/02/26 13:55:16;;;;;;;;;;;7.60;99.90;;;;;;5071593;28;20039;-63
2022/02/26 13:57:43;;;;;;;;;;;7.40;99.90;;;;;;5071742;28;19963;-61
2022/02/26 14:00:12;;;;;;;;;;;7.50;99.90;;;;;;5071623;28;19920;-60
2022/02/26 14:02:39;;;;;;;;;;;7.60;99.90;;;;;;5071458;28;20358;-61
2022/02/26 14:05:07;;;;;;;;;;;7.60;99.90;;;;;;5071206;28;19924;-59
2022/02/26 14:07:35;;;;;;;;;;;7.50;99.90;;;;;;5071273;28;19920;-62
2022/02/26 14:10:03;;;;;;;;;;;7.50;99.90;;;;;;5071453;28;19932;-61
2022/02/26 14:12:31;;;;;;;;;;;7.50;99.90;;;;;;5071566;28;19920;-63
2022/02/26 14:14:58;;;;;;;;;;;7.50;99.90;;;;;;5071642;28;19921;-62
2022/02/26 14:17:27;;;;;;;;;;;7.40;99.90;;;;;;5070971;28;20310;-59
2022/02/26 14:19:56;;;;;;;;;;;7.30;99.90;;;;;;5071671;28;19921;-61
2022/02/26 14:22:26;;;;;;;;;;;7.20;99.90;;;;;;5071433;28;20268;-61
2022/02/26 14:24:53;;;;;;;;;;;7.20;99.90;;;;;;5071663;28;19921;-61
2022/02/26 14:27:23;;;;;;;;;;;7.10;99.90;;;;;;5071218;28;20378;-60
2022/02/26 14:30:00;;;;;;;;;;;7.30;99.90;;;;;;5071630;28;19921;-62
2022/02/26 14:32:27;;;;;;;;;;;7.30;99.90;;;;;;5071044;28;20375;-61
2022/02/26 14:34:53;;;;;;;;;;;7.40;99.90;;;;;;5062548;28;19920;-60